Time;durP1;ratioP1;P1;durP2;ratioP2;P2;SDS_P1;SDS_P2;PMS_P1;PMS_P2;Temp;Humidity;BMP_temperature;BMP_pressure;BME280_temperature;BME280_humidity;BME280_pressure;Samples;Min_cycle;Max_cycle;Signal;HPM_P1;HPM_P2
2023/07/24 00:01:50;;;;;;;4.93;2.93;;;16.60;99.90;;;;;;5007622;28;20876;-81
2023/07/24 00:04:18;;;;;;;5.07;3.00;;;16.60;99.90;;;;;;5005401;28;20240;-81
2023/07/24 00:06:44;;;;;;;3.00;2.77;;;16.60;99.90;;;;;;5007887;28;20908;-81
2023/07/24 00:09:11;;;;;;;3.60;2.90;;;16.60;99.90;;;;;;5025441;28;20238;-82
2023/07/24 00:11:38;;;;;;;3.07;2.77;;;16.60;99.90;;;;;;5025469;28;20235;-82
2023/07/24 00:14:05;;;;;;;3.33;3.00;;;16.60;99.90;;;;;;4990177;28;20224;-84
2023/07/24 00:16:31;;;;;;;2.80;2.50;;;16.60;99.90;;;;;;4989801;28;20235;-82
2023/07/24 00:18:58;;;;;;;4.20;3.10;;;16.60;99.90;;;;;;4990354;28;20234;-82
2023/07/24 00:21:26;;;;;;;3.90;3.00;;;16.60;99.90;;;;;;5006383;28;20261;-82
2023/07/24 00:23:53;;;;;;;3.37;3.00;;;16.60;99.90;;;;;;5007568;28;20247;-81
2023/07/24 00:26:19;;;;;;;6.87;3.20;;;16.60;99.90;;;;;;4998315;28;20625;-82
2023/07/24 00:28:46;;;;;;;3.23;2.93;;;16.60;99.90;;;;;;5005784;28;20648;-81
2023/07/24 00:31:14;;;;;;;3.97;3.13;;;16.60;99.90;;;;;;4990431;28;20242;-81
2023/07/24 00:33:44;;;;;;;2.93;2.63;;;16.60;99.90;;;;;;5017468;28;20236;-81
2023/07/24 00:36:12;;;;;;;4.67;3.23;;;16.60;99.90;;;;;;5010216;28;20770;-81
2023/07/24 00:38:40;;;;;;;4.30;2.70;;;16.60;99.90;;;;;;5000082;28;20233;-81
2023/07/24 00:41:07;;;;;;;3.27;2.97;;;16.60;99.90;;;;;;5012560;28;20316;-81
2023/07/24 00:43:34;;;;;;;4.73;2.90;;;16.60;99.90;;;;;;5013314;28;20252;-81
2023/07/24 00:46:03;;;;;;;4.90;3.20;;;16.60;99.90;;;;;;5000566;28;20720;-81
2023/07/24 00:48:30;;;;;;;3.33;2.90;;;16.70;99.90;;;;;;5011907;28;20232;-82
2023/07/24 00:50:57;;;;;;;3.37;3.03;;;16.60;99.90;;;;;;5012075;28;20289;-81
2023/07/24 00:53:24;;;;;;;3.17;2.80;;;16.60;99.90;;;;;;4991388;28;20299;-82
2023/07/24 00:55:52;;;;;;;3.83;3.00;;;16.60;99.90;;;;;;5010342;28;20223;-80
2023/07/24 00:58:20;;;;;;;3.23;2.93;;;16.50;99.90;;;;;;5026932;28;20251;-82
2023/07/24 01:00:47;;;;;;;4.33;3.33;;;16.60;99.90;;;;;;5004952;28;20941;-82
2023/07/24 01:03:14;;;;;;;3.97;3.03;;;16.50;99.90;;;;;;5020880;28;20699;-81
2023/07/24 01:05:41;;;;;;;3.67;3.03;;;16.50;99.90;;;;;;4996013;28;20978;-82
2023/07/24 01:08:08;;;;;;;3.60;3.13;;;16.50;99.90;;;;;;5021759;28;20228;-82
2023/07/24 01:10:35;;;;;;;3.77;3.17;;;16.50;99.90;;;;;;4999257;28;20220;-82
2023/07/24 01:13:10;;;;;;;4.80;3.43;;;16.40;99.90;;;;;;4993178;28;20754;-82
2023/07/24 01:15:42;;;;;;;4.17;3.23;;;16.40;99.90;;;;;;5012841;28;20248;-82
2023/07/24 01:18:11;;;;;;;5.13;2.77;;;16.40;99.90;;;;;;4997520;28;20258;-82
2023/07/24 01:20:41;;;;;;;3.83;3.10;;;16.50;99.90;;;;;;4996752;28;20970;-81
2023/07/24 01:23:27;;;;;;;5.43;3.30;;;16.50;99.90;;;;;;5012426;28;20240;-82
2023/07/24 01:25:57;;;;;;;3.87;3.10;;;16.50;99.90;;;;;;4989053;28;20233;-81
2023/07/24 01:28:24;;;;;;;3.83;3.23;;;16.60;99.90;;;;;;5011109;28;20240;-82
2023/07/24 01:30:52;;;;;;;5.20;3.23;;;16.60;99.90;;;;;;5007963;28;20686;-82
2023/07/24 01:33:19;;;;;;;4.13;3.20;;;16.60;99.90;;;;;;5018715;28;20291;-82
2023/07/24 01:35:51;;;;;;;5.40;3.10;;;16.60;99.90;;;;;;5021074;28;20229;-82
2023/07/24 01:38:19;;;;;;;4.97;3.57;;;16.70;99.90;;;;;;4988789;28;20237;-82
2023/07/24 01:40:46;;;;;;;4.33;3.20;;;16.70;99.90;;;;;;5001190;28;20306;-82
2023/07/24 01:43:15;;;;;;;3.20;2.90;;;16.70;99.90;;;;;;5021870;28;20737;-81
2023/07/24 01:45:41;;;;;;;3.67;3.20;;;16.70;99.90;;;;;;5022119;28;20229;-80
2023/07/24 01:48:08;;;;;;;4.50;3.03;;;16.80;99.90;;;;;;5006383;28;20809;-81
2023/07/24 01:50:35;;;;;;;3.73;3.33;;;16.70;99.90;;;;;;5023013;28;20220;-81
2023/07/24 01:53:01;;;;;;;4.40;3.43;;;16.80;99.90;;;;;;4992000;28;20530;-80
2023/07/24 01:55:28;;;;;;;3.53;3.23;;;16.80;99.90;;;;;;5029816;28;20278;-80
2023/07/24 01:57:55;;;;;;;4.73;3.30;;;16.80;99.90;;;;;;4990407;28;20246;-80
2023/07/24 02:00:23;;;;;;;4.03;3.23;;;16.80;99.90;;;;;;5007637;28;20228;-80
2023/07/24 02:02:57;;;;;;;4.03;2.90;;;16.80;99.90;;;;;;5010743;28;20224;-80
2023/07/24 02:05:24;;;;;;;4.17;3.60;;;16.80;99.90;;;;;;5023994;28;20299;-80
2023/07/24 02:07:52;;;;;;;3.53;3.20;;;16.90;99.90;;;;;;4989459;28;20758;-80
2023/07/24 02:10:18;;;;;;;3.60;3.30;;;16.80;99.90;;;;;;5018431;28;20224;-80
2023/07/24 02:12:46;;;;;;;4.07;3.30;;;16.90;99.90;;;;;;5037728;28;20290;-81
2023/07/24 02:15:13;;;;;;;4.17;3.50;;;16.90;99.90;;;;;;5000619;28;20281;-81
2023/07/24 02:17:43;;;;;;;4.00;3.00;;;16.90;99.90;;;;;;5010096;28;20243;-81
2023/07/24 02:20:11;;;;;;;3.40;2.90;;;16.90;99.90;;;;;;5002030;28;20385;-81
2023/07/24 02:22:38;;;;;;;3.27;2.97;;;16.90;99.90;;;;;;5004164;28;20320;-81
2023/07/24 02:25:07;;;;;;;4.10;3.57;;;16.90;99.90;;;;;;5013790;28;20241;-81
2023/07/24 02:27:35;;;;;;;4.33;3.47;;;16.90;99.90;;;;;;5009708;28;20315;-82
2023/07/24 02:30:03;;;;;;;4.17;3.70;;;16.90;99.90;;;;;;5008826;28;20290;-82
2023/07/24 02:32:30;;;;;;;3.87;3.50;;;16.90;99.90;;;;;;4998880;28;20445;-82
2023/07/24 02:34:58;;;;;;;4.30;3.80;;;16.90;99.90;;;;;;5025510;28;20661;-81
2023/07/24 02:37:25;;;;;;;5.10;3.43;;;16.90;99.90;;;;;;5025857;28;20225;-81
2023/07/24 02:39:52;;;;;;;3.70;3.40;;;16.90;99.90;;;;;;5010622;28;20466;-81
2023/07/24 02:42:20;;;;;;;3.60;3.30;;;17.00;99.90;;;;;;5004147;28;20231;-82
2023/07/24 02:44:47;;;;;;;4.73;3.93;;;17.00;99.90;;;;;;5008530;28;20233;-82
2023/07/24 02:47:14;;;;;;;4.07;3.57;;;17.00;99.90;;;;;;5034694;28;20236;-82
2023/07/24 02:49:40;;;;;;;4.83;3.40;;;17.00;99.90;;;;;;4997802;28;20737;-82
2023/07/24 02:52:08;;;;;;;5.00;4.50;;;17.00;99.90;;;;;;5011669;28;20242;-82
2023/07/24 02:54:35;;;;;;;5.90;4.13;;;17.00;99.90;;;;;;5004101;28;20570;-84
2023/07/24 02:57:02;;;;;;;6.13;4.47;;;17.00;99.90;;;;;;5021247;28;20252;-82
2023/07/24 02:59:31;;;;;;;5.30;4.00;;;17.00;99.90;;;;;;5028964;28;20227;-81
2023/07/24 03:01:58;;;;;;;5.60;4.53;;;17.00;99.90;;;;;;5010929;28;20318;-81
2023/07/24 03:04:25;;;;;;;6.60;4.37;;;17.00;99.90;;;;;;5010223;28;20741;-80
2023/07/24 03:06:52;;;;;;;6.40;4.60;;;17.00;99.90;;;;;;5011382;28;20231;-83
2023/07/24 03:09:20;;;;;;;5.33;4.60;;;17.00;99.90;;;;;;5029257;28;20271;-82
2023/07/24 03:11:46;;;;;;;5.57;4.67;;;17.00;99.90;;;;;;5029930;28;20776;-81
2023/07/24 03:14:13;;;;;;;4.60;4.13;;;17.00;99.90;;;;;;5011073;28;20241;-81
2023/07/24 03:16:40;;;;;;;8.47;4.97;;;17.00;99.90;;;;;;5011117;28;20669;-81
2023/07/24 03:19:07;;;;;;;6.03;4.57;;;17.00;99.90;;;;;;5011750;28;20274;-82
2023/07/24 03:21:33;;;;;;;5.77;4.50;;;16.90;99.90;;;;;;5011810;28;20224;-81
2023/07/24 03:24:00;;;;;;;6.13;4.20;;;16.90;99.90;;;;;;5012081;28;20316;-81
2023/07/24 03:26:28;;;;;;;6.70;4.60;;;16.90;99.90;;;;;;5011057;28;20314;-82
2023/07/24 03:28:55;;;;;;;4.87;4.03;;;16.90;99.90;;;;;;5011941;28;20226;-82
2023/07/24 03:31:22;;;;;;;5.47;4.50;;;16.90;99.90;;;;;;5011511;28;20690;-82
2023/07/24 03:33:49;;;;;;;6.00;4.30;;;16.90;99.90;;;;;;5012073;28;20310;-81
2023/07/24 03:36:16;;;;;;;6.87;4.87;;;16.90;99.90;;;;;;5012259;28;20773;-81
2023/07/24 03:38:43;;;;;;;5.20;4.00;;;16.90;99.90;;;;;;5013230;28;20235;-81
2023/07/24 03:41:10;;;;;;;6.37;4.97;;;16.90;99.90;;;;;;5011794;28;20240;-81
2023/07/24 03:43:39;;;;;;;5.27;4.63;;;17.00;99.90;;;;;;5028836;28;20232;-81
2023/07/24 03:46:06;;;;;;;5.23;4.67;;;17.00;99.90;;;;;;5011900;28;20294;-82
2023/07/24 03:48:32;;;;;;;6.17;4.73;;;17.00;99.90;;;;;;5010623;28;20591;-81
2023/07/24 03:51:00;;;;;;;5.87;3.80;;;17.00;99.90;;;;;;5028477;28;20618;-80
2023/07/24 03:53:27;;;;;;;5.40;4.70;;;17.10;99.90;;;;;;5023441;28;20595;-79
2023/07/24 03:55:54;;;;;;;5.23;4.20;;;17.10;99.90;;;;;;5005041;28;20303;-79
2023/07/24 03:58:21;;;;;;;6.73;4.50;;;17.10;99.90;;;;;;5009040;28;20776;-80
2023/07/24 04:00:49;;;;;;;5.20;4.70;;;17.10;99.90;;;;;;5007513;28;20233;-80
2023/07/24 04:03:16;;;;;;;4.30;3.90;;;17.10;99.90;;;;;;5008711;28;20259;-80
2023/07/24 04:05:43;;;;;;;6.20;5.07;;;17.10;99.90;;;;;;5010287;28;20264;-80
2023/07/24 04:08:10;;;;;;;4.83;4.33;;;17.10;99.90;;;;;;5008837;28;20597;-80
2023/07/24 04:10:37;;;;;;;4.97;3.93;;;17.10;99.90;;;;;;5001596;28;20230;-80
2023/07/24 04:13:04;;;;;;;4.87;4.23;;;17.10;99.90;;;;;;5011086;28;20235;-80
2023/07/24 04:15:32;;;;;;;5.60;3.97;;;17.10;99.90;;;;;;5011339;28;20290;-80
2023/07/24 04:18:00;;;;;;;4.70;4.20;;;17.10;99.90;;;;;;5000099;28;20232;-80
2023/07/24 04:20:27;;;;;;;4.33;3.70;;;17.00;99.90;;;;;;5009852;28;20227;-80
2023/07/24 04:22:54;;;;;;;5.53;4.13;;;17.00;99.90;;;;;;5006422;28;20244;-80
2023/07/24 04:25:21;;;;;;;5.83;4.00;;;17.00;99.90;;;;;;5006491;28;20638;-80
2023/07/24 04:27:47;;;;;;;5.07;4.40;;;16.90;99.90;;;;;;5010846;28;20236;-80
2023/07/24 04:30:14;;;;;;;5.40;4.23;;;16.90;99.90;;;;;;5003327;28;20891;-80
2023/07/24 04:32:41;;;;;;;4.83;4.27;;;16.90;99.90;;;;;;4997216;28;20241;-80
2023/07/24 04:35:10;;;;;;;6.43;4.40;;;16.90;99.90;;;;;;5014045;28;20229;-82
2023/07/24 04:37:36;;;;;;;5.67;4.20;;;16.90;99.90;;;;;;4996969;28;20232;-80
2023/07/24 04:40:04;;;;;;;5.10;4.37;;;16.90;99.90;;;;;;5008338;28;20228;-80
2023/07/24 04:42:31;;;;;;;4.93;4.27;;;16.90;99.90;;;;;;4998529;28;20712;-79
2023/07/24 04:44:58;;;;;;;6.23;4.10;;;16.90;99.90;;;;;;5011907;28;20252;-80
2023/07/24 04:47:25;;;;;;;5.47;4.53;;;16.90;99.90;;;;;;5006408;28;20711;-80
2023/07/24 04:49:51;;;;;;;5.07;4.33;;;16.90;99.90;;;;;;5003117;28;20224;-79
2023/07/24 04:52:19;;;;;;;7.17;4.60;;;16.90;99.90;;;;;;5010226;28;20259;-81
2023/07/24 04:54:46;;;;;;;5.53;4.10;;;17.00;99.90;;;;;;5010204;28;20252;-79
2023/07/24 04:57:13;;;;;;;5.77;4.80;;;17.00;99.90;;;;;;5010404;28;20338;-82
2023/07/24 04:59:40;;;;;;;5.27;4.33;;;17.00;99.90;;;;;;5007568;28;20236;-83
2023/07/24 05:02:06;;;;;;;6.50;5.00;;;17.00;99.90;;;;;;5003041;28;20264;-80
2023/07/24 05:04:33;;;;;;;5.80;4.30;;;17.00;99.90;;;;;;5006359;28;20273;-80
2023/07/24 05:07:00;;;;;;;6.80;4.80;;;17.00;99.90;;;;;;5031739;28;20839;-79
2023/07/24 05:09:28;;;;;;;7.07;5.03;;;17.00;99.90;;;;;;4995930;28;20242;-80
2023/07/24 05:11:55;;;;;;;5.53;4.97;;;17.10;99.90;;;;;;5005596;28;20967;-79
2023/07/24 05:14:21;;;;;;;6.13;4.97;;;17.10;99.90;;;;;;5008588;28;20320;-80
2023/07/24 05:16:48;;;;;;;5.10;4.60;;;17.10;99.90;;;;;;4990220;28;21764;-79
2023/07/24 05:19:15;;;;;;;5.43;4.90;;;17.20;99.90;;;;;;5007166;28;20745;-79
2023/07/24 05:21:41;;;;;;;5.60;4.30;;;17.20;99.90;;;;;;5005007;28;20317;-79
2023/07/24 05:24:08;;;;;;;5.17;4.10;;;17.30;99.90;;;;;;5007602;28;20234;-80
2023/07/24 05:26:36;;;;;;;6.73;4.80;;;17.40;99.90;;;;;;5008760;28;20238;-80
2023/07/24 05:29:03;;;;;;;5.20;4.70;;;17.40;99.90;;;;;;5009892;28;20218;-80
2023/07/24 05:31:29;;;;;;;5.73;4.87;;;17.40;99.90;;;;;;5003316;28;20225;-79
2023/07/24 05:33:56;;;;;;;7.33;5.17;;;17.50;99.90;;;;;;5004758;28;20319;-79
2023/07/24 05:36:23;;;;;;;5.80;4.43;;;17.60;99.90;;;;;;5007741;28;20238;-79
2023/07/24 05:38:52;;;;;;;6.50;5.13;;;17.70;99.90;;;;;;5021814;28;20689;-80
2023/07/24 05:41:21;;;;;;;5.53;5.00;;;17.70;99.90;;;;;;4981815;28;20220;-79
2023/07/24 05:43:50;;;;;;;5.60;4.50;;;17.80;99.90;;;;;;5022480;28;20763;-82
2023/07/24 05:46:17;;;;;;;7.07;5.03;;;17.90;99.90;;;;;;4989789;28;20238;-83
2023/07/24 05:48:43;;;;;;;5.83;5.00;;;18.00;99.90;;;;;;5011489;28;20296;-83
2023/07/24 05:51:10;;;;;;;5.47;4.43;;;18.00;99.90;;;;;;5017737;28;20225;-83
2023/07/24 05:53:37;;;;;;;5.70;4.47;;;18.00;99.90;;;;;;5007629;28;20233;-83
2023/07/24 05:56:04;;;;;;;4.83;4.33;;;18.10;99.90;;;;;;5013205;28;20232;-83
2023/07/24 05:58:31;;;;;;;4.97;4.40;;;18.10;99.90;;;;;;4994304;28;20221;-83
2023/07/24 06:00:59;;;;;;;5.50;4.30;;;18.20;99.90;;;;;;5012932;28;20250;-84
2023/07/24 06:03:26;;;;;;;6.10;4.70;;;18.30;99.90;;;;;;5021348;28;20235;-82
2023/07/24 06:05:53;;;;;;;4.90;4.40;;;18.30;99.90;;;;;;5033553;28;20225;-83
2023/07/24 06:08:20;;;;;;;4.83;4.37;;;18.30;99.90;;;;;;5009211;28;20229;-82
2023/07/24 06:10:48;;;;;;;7.63;4.80;;;18.30;99.90;;;;;;4996312;28;20217;-82
2023/07/24 06:13:15;;;;;;;6.60;4.83;;;18.30;99.90;;;;;;5012459;28;20236;-82
2023/07/24 06:15:42;;;;;;;6.53;4.57;;;18.40;99.90;;;;;;5006038;28;20224;-82
2023/07/24 06:18:10;;;;;;;6.27;5.03;;;18.30;99.90;;;;;;5014529;28;20320;-82
2023/07/24 06:20:37;;;;;;;5.63;4.33;;;18.40;99.90;;;;;;5033906;28;20237;-83
2023/07/24 06:23:04;;;;;;;4.67;4.23;;;18.40;99.90;;;;;;5030263;28;20263;-84
2023/07/24 06:25:31;;;;;;;6.50;4.70;;;18.40;99.90;;;;;;5012330;28;20304;-83
2023/07/24 06:27:58;;;;;;;4.53;4.13;;;18.40;99.90;;;;;;4993826;28;20229;-84
2023/07/24 06:30:24;;;;;;;4.50;3.87;;;18.40;99.90;;;;;;5029638;28;20240;-82
2023/07/24 06:32:51;;;;;;;4.07;3.40;;;18.40;99.90;;;;;;5008313;28;20786;-81
2023/07/24 06:35:19;;;;;;;4.37;3.97;;;18.50;99.90;;;;;;5005381;28;20596;-81
2023/07/24 06:37:46;;;;;;;6.20;4.50;;;18.60;99.90;;;;;;5010218;28;20233;-81
2023/07/24 06:40:13;;;;;;;5.80;4.40;;;18.60;99.90;;;;;;5000770;28;20226;-80
2023/07/24 06:42:39;;;;;;;5.63;3.80;;;18.70;99.90;;;;;;4999096;28;20251;-80
2023/07/24 06:45:08;;;;;;;5.27;4.37;;;18.80;99.90;;;;;;5011661;28;20324;-80
2023/07/24 06:47:34;;;;;;;7.30;4.83;;;18.80;99.90;;;;;;5030852;28;20225;-79
2023/07/24 06:50:02;;;;;;;5.10;4.60;;;18.90;99.90;;;;;;5010913;28;20233;-81
2023/07/24 06:52:30;;;;;;;5.30;4.40;;;19.00;99.90;;;;;;5006971;28;20926;-78
2023/07/24 06:54:57;;;;;;;5.57;4.70;;;19.00;99.90;;;;;;5002194;28;20222;-79
2023/07/24 06:57:24;;;;;;;5.40;4.53;;;19.10;99.90;;;;;;5007476;28;20305;-80
2023/07/24 06:59:51;;;;;;;4.85;4.35;;;19.10;99.90;;;;;;5004348;28;20222;-81
2023/07/24 07:02:18;;;;;;;6.37;4.63;;;19.20;99.90;;;;;;4990511;28;20727;-80
2023/07/24 07:04:45;;;;;;;4.70;4.20;;;19.30;99.90;;;;;;4994321;28;20233;-81
2023/07/24 07:07:11;;;;;;;4.93;4.43;;;19.30;99.90;;;;;;5013148;28;20229;-80
2023/07/24 07:09:39;;;;;;;4.90;4.50;;;19.40;99.90;;;;;;5006539;28;20319;-80
2023/07/24 07:12:07;;;;;;;5.27;4.67;;;19.40;99.90;;;;;;4993359;28;20225;-80
2023/07/24 07:14:34;;;;;;;4.83;4.37;;;19.40;99.90;;;;;;5003235;28;20247;-76
2023/07/24 07:17:01;;;;;;;5.47;4.27;;;19.50;99.90;;;;;;5007979;28;20824;-76
2023/07/24 07:19:28;;;;;;;5.90;4.53;;;19.50;99.90;;;;;;5003316;28;20232;-78
2023/07/24 07:21:55;;;;;;;5.33;4.37;;;19.60;99.90;;;;;;5008390;28;20312;-76
2023/07/24 07:24:21;;;;;;;4.30;3.90;;;19.60;99.90;;;;;;4990667;28;20237;-77
2023/07/24 07:26:49;;;;;;;4.30;3.90;;;19.60;99.90;;;;;;5005954;28;20232;-78
2023/07/24 07:29:16;;;;;;;4.70;4.30;;;19.60;99.90;;;;;;5010986;28;20304;-77
2023/07/24 07:31:43;;;;;;;4.20;3.80;;;19.60;99.90;;;;;;5004273;28;20224;-78
2023/07/24 07:34:09;;;;;;;4.63;4.13;;;19.60;99.90;;;;;;5004840;28;20240;-77
2023/07/24 07:36:36;;;;;;;4.30;3.90;;;19.60;99.90;;;;;;5011450;28;20231;-77
2023/07/24 07:39:03;;;;;;;5.53;4.40;;;19.60;99.90;;;;;;5011921;28;20221;-78
2023/07/24 07:41:29;;;;;;;4.90;4.30;;;19.60;99.90;;;;;;4985982;28;20257;-78
2023/07/24 07:43:58;;;;;;;4.70;4.20;;;19.50;99.90;;;;;;4983450;28;20224;-81
2023/07/24 07:46:25;;;;;;;4.20;3.80;;;19.60;99.90;;;;;;5025788;28;20243;-81
2023/07/24 07:48:52;;;;;;;4.60;4.20;;;19.60;99.90;;;;;;5010472;28;20656;-80
2023/07/24 07:51:19;;;;;;;4.38;3.97;;;19.60;99.90;;;;;;4990786;28;20356;-81
2023/07/24 07:53:45;;;;;;;3.97;3.60;;;19.60;99.90;;;;;;4991865;28;20229;-80
2023/07/24 07:56:12;;;;;;;4.10;3.70;;;19.70;99.90;;;;;;5004904;28;20225;-81
2023/07/24 07:58:39;;;;;;;4.43;3.60;;;19.70;99.90;;;;;;4998763;28;20230;-80
2023/07/24 08:01:07;;;;;;;4.23;3.83;;;19.80;99.90;;;;;;4993929;28;20855;-81
2023/07/24 08:03:34;;;;;;;4.47;4.07;;;19.80;99.90;;;;;;5005200;28;20312;-81
2023/07/24 08:06:01;;;;;;;4.82;3.35;;;20.00;99.90;;;;;;5007242;28;20232;-80
2023/07/24 08:08:28;;;;;;;4.25;3.65;;;20.00;99.90;;;;;;5022654;28;20300;-80
2023/07/24 08:10:54;;;;;;;4.53;3.92;;;20.10;99.90;;;;;;5009304;28;20320;-81
2023/07/24 08:13:21;;;;;;;5.00;4.53;;;20.20;99.90;;;;;;5008014;28;20231;-81
2023/07/24 08:15:48;;;;;;;4.95;4.10;;;20.20;99.90;;;;;;5005767;28;20226;-81
2023/07/24 08:18:16;;;;;;;4.90;3.90;;;20.20;99.90;;;;;;5023140;28;20236;-81
2023/07/24 08:20:42;;;;;;;4.93;3.78;;;20.30;99.90;;;;;;5005057;28;20309;-80
2023/07/24 08:23:09;;;;;;;4.50;4.10;;;20.40;99.90;;;;;;5027844;28;20779;-80
2023/07/24 08:25:36;;;;;;;5.03;4.20;;;20.40;99.90;;;;;;4998401;28;20223;-79
2023/07/24 08:28:04;;;;;;;4.38;3.97;;;20.50;99.90;;;;;;5002884;28;20225;-81
2023/07/24 08:30:32;;;;;;;4.75;3.90;;;20.50;99.90;;;;;;4997649;28;20222;-81
2023/07/24 08:32:59;;;;;;;4.05;3.60;;;20.60;99.90;;;;;;5012331;28;20247;-80
2023/07/24 08:35:27;;;;;;;4.55;3.90;;;20.60;99.90;;;;;;4999434;28;20217;-80
2023/07/24 08:37:54;;;;;;;4.13;3.83;;;20.70;99.90;;;;;;5017012;28;20229;-80
2023/07/24 08:40:21;;;;;;;6.00;4.50;;;20.80;99.90;;;;;;4994991;28;20225;-81
2023/07/24 08:42:51;;;;;;;5.35;4.85;;;20.80;99.90;;;;;;5016414;28;20233;-81
2023/07/24 08:45:18;;;;;;;7.15;5.40;;;20.90;99.90;;;;;;5024470;28;20229;-80
2023/07/24 08:47:45;;;;;;;6.43;5.07;;;21.00;99.90;;;;;;5010571;28;20233;-81
2023/07/24 08:50:13;;;;;;;5.47;4.97;;;21.10;99.90;;;;;;5011338;28;20225;-81
2023/07/24 08:52:42;;;;;;;6.60;5.18;;;21.20;99.90;;;;;;5012299;28;20233;-81
2023/07/24 08:55:09;;;;;;;6.70;5.30;;;21.30;99.90;;;;;;5004599;28;20217;-81
2023/07/24 08:57:36;;;;;;;6.57;5.57;;;21.30;99.90;;;;;;5011653;28;20222;-81
2023/07/24 09:00:04;;;;;;;5.40;4.90;;;21.40;99.90;;;;;;5008923;28;20235;-81
2023/07/24 09:02:33;;;;;;;5.95;5.35;;;21.40;99.90;;;;;;4986449;28;20249;-81
2023/07/24 09:05:00;;;;;;;5.07;4.68;;;21.40;99.90;;;;;;5009079;28;20235;-81
2023/07/24 09:07:26;;;;;;;5.50;4.90;;;21.50;99.90;;;;;;4994190;28;20316;-81
2023/07/24 09:09:54;;;;;;;5.25;4.75;;;21.50;99.90;;;;;;4995326;28;20256;-82
2023/07/24 09:12:23;;;;;;;4.95;4.45;;;21.70;99.90;;;;;;5012496;28;20324;-82
2023/07/24 09:14:50;;;;;;;5.40;4.90;;;21.90;99.90;;;;;;5013611;28;20221;-81
2023/07/24 09:17:16;;;;;;;5.25;4.45;;;22.20;99.90;;;;;;5028833;28;20234;-81
2023/07/24 09:19:44;;;;;;;6.45;4.72;;;22.40;99.90;;;;;;4995825;28;20304;-82
2023/07/24 09:22:13;;;;;;;5.00;4.50;;;22.70;99.90;;;;;;5026395;28;20307;-82
2023/07/24 09:24:50;;;;;;;6.25;4.95;;;23.00;99.90;;;;;;5012581;28;20256;-82
2023/07/24 09:27:18;;;;;;;5.88;4.90;;;23.30;99.90;;;;;;5026185;28;20311;-82
2023/07/24 09:29:46;;;;;;;6.07;5.38;;;23.60;99.90;;;;;;5030316;28;20312;-82
2023/07/24 09:32:20;;;;;;;5.90;5.30;;;23.80;99.90;;;;;;5013345;28;20323;-82
2023/07/24 09:34:47;;;;;;;7.47;5.70;;;24.00;99.90;;;;;;4994889;28;20228;-81
2023/07/24 09:37:27;;;;;;;6.50;5.85;;;24.10;99.90;;;;;;4993564;28;20247;-82
2023/07/24 09:39:54;;;;;;;6.57;5.93;;;24.00;99.90;;;;;;5035672;28;20307;-81
2023/07/24 09:42:30;;;;;;;6.00;5.50;;;24.10;99.90;;;;;;5017553;28;20248;-81
2023/07/24 09:44:57;;;;;;;7.57;6.32;;;24.10;99.90;;;;;;5013666;28;20308;-80
2023/07/24 09:47:23;;;;;;;6.30;5.70;;;24.20;99.90;;;;;;4998303;28;20236;-81
2023/07/24 09:49:51;;;;;;;7.72;5.60;;;24.30;99.90;;;;;;5014171;28;20786;-81
2023/07/24 09:52:20;;;;;;;5.47;4.97;;;24.40;99.90;;;;;;5012304;28;20221;-81
2023/07/24 09:54:55;;;;;;;6.35;5.18;;;24.60;99.90;;;;;;5008180;28;20882;-82
2023/07/24 09:57:23;;;;;;;6.88;5.70;;;24.80;99.90;;;;;;4988639;28;20236;-80
2023/07/24 09:59:53;;;;;;;6.03;5.43;;;25.00;99.90;;;;;;5003007;28;20244;-82
2023/07/24 10:02:20;;;;;;;6.78;6.18;;;25.20;99.90;;;;;;5004133;28;20217;-81
2023/07/24 10:04:48;;;;;;;6.25;5.63;;;25.30;99.90;;;;;;5007511;28;20229;-79
2023/07/24 10:07:14;;;;;;;5.70;5.20;;;25.50;99.90;;;;;;4997978;28;20231;-79
2023/07/24 10:09:43;;;;;;;6.68;5.40;;;25.60;99.90;;;;;;4997845;28;20249;-80
2023/07/24 10:12:10;;;;;;;6.03;5.45;;;25.70;99.90;;;;;;5000781;28;20227;-79
2023/07/24 10:14:38;;;;;;;6.47;5.78;;;25.80;99.90;;;;;;4998022;28;20229;-79
2023/07/24 10:17:06;;;;;;;5.28;4.85;;;25.70;99.90;;;;;;5000487;28;20560;-79
2023/07/24 10:19:38;;;;;;;5.45;4.95;;;25.70;99.60;;;;;;5005430;28;20226;-79
2023/07/24 10:22:04;;;;;;;6.13;5.63;;;25.60;99.60;;;;;;5001192;28;20232;-79
2023/07/24 10:24:31;;;;;;;6.47;5.50;;;25.50;99.80;;;;;;5000600;28;20312;-79
2023/07/24 10:26:58;;;;;;;5.75;5.25;;;25.40;99.70;;;;;;5002101;28;20933;-79
2023/07/24 10:29:25;;;;;;;6.22;5.63;;;25.30;99.90;;;;;;5019076;28;20229;-79
2023/07/24 10:31:56;;;;;;;6.70;5.70;;;25.20;99.90;;;;;;5005128;28;20217;-79
2023/07/24 10:34:23;;;;;;;6.35;5.75;;;25.00;99.80;;;;;;5004275;28;20239;-79
2023/07/24 10:36:50;;;;;;;6.63;5.93;;;25.00;99.90;;;;;;4986622;28;20300;-79
2023/07/24 10:39:20;;;;;;;5.90;5.35;;;24.90;99.90;;;;;;4999182;28;20250;-80
2023/07/24 10:41:47;;;;;;;6.18;5.57;;;24.90;99.90;;;;;;5016235;28;20456;-79
2023/07/24 10:44:14;;;;;;;7.85;5.90;;;24.90;99.90;;;;;;5005343;28;20265;-79
2023/07/24 10:46:42;;;;;;;5.97;5.38;;;24.90;99.90;;;;;;5006894;28;20225;-79
2023/07/24 10:49:09;;;;;;;6.00;5.40;;;24.90;99.90;;;;;;4989569;28;20244;-79
2023/07/24 10:51:38;;;;;;;6.68;6.05;;;24.90;99.90;;;;;;5005352;28;20245;-80
2023/07/24 10:54:05;;;;;;;8.38;5.40;;;25.00;99.90;;;;;;5002016;28;20322;-79
2023/07/24 10:56:31;;;;;;;7.22;5.60;;;25.00;99.90;;;;;;5004441;28;20227;-79
2023/07/24 10:59:03;;;;;;;6.15;5.10;;;25.10;99.90;;;;;;5003436;28;20221;-80
2023/07/24 11:01:31;;;;;;;6.20;5.60;;;25.10;99.60;;;;;;5013811;28;20261;-79
2023/07/24 11:03:59;;;;;;;6.28;5.57;;;25.20;99.90;;;;;;4999398;28;20214;-79
2023/07/24 11:06:26;;;;;;;6.85;5.50;;;25.30;99.90;;;;;;5004058;28;20248;-80
2023/07/24 11:08:56;;;;;;;6.10;5.50;;;25.40;99.90;;;;;;5002694;28;20225;-80
2023/07/24 11:11:23;;;;;;;5.70;4.85;;;25.40;99.50;;;;;;5003542;28;20283;-80
2023/07/24 11:13:50;;;;;;;6.03;5.30;;;25.50;99.60;;;;;;5001918;28;20248;-79
2023/07/24 11:16:16;;;;;;;5.50;4.65;;;25.50;99.30;;;;;;5000560;28;21741;-79
2023/07/24 11:18:47;;;;;;;6.80;4.50;;;25.40;99.30;;;;;;5001702;28;20217;-79
2023/07/24 11:21:15;;;;;;;6.82;4.95;;;25.50;99.50;;;;;;4988578;28;20582;-79
2023/07/24 11:23:46;;;;;;;5.20;4.65;;;25.60;99.40;;;;;;5004123;28;20237;-79
2023/07/24 11:26:15;;;;;;;4.60;4.03;;;25.80;98.90;;;;;;5001063;28;20710;-79
2023/07/24 11:28:42;;;;;;;5.40;4.90;;;26.00;99.00;;;;;;5004841;28;20233;-79
2023/07/24 11:31:09;;;;;;;6.47;4.57;;;26.10;98.40;;;;;;5006512;28;20221;-80
2023/07/24 11:33:36;;;;;;;5.88;4.88;;;26.30;98.40;;;;;;5001135;28;20226;-79
2023/07/24 11:36:04;;;;;;;4.80;4.40;;;26.40;98.60;;;;;;5004594;28;20214;-79
2023/07/24 11:38:30;;;;;;;5.38;4.88;;;26.50;98.40;;;;;;5001486;28;20692;-79
2023/07/24 11:40:57;;;;;;;5.03;4.53;;;26.60;98.00;;;;;;5007546;28;20228;-79
2023/07/24 11:43:26;;;;;;;6.78;4.53;;;26.70;97.50;;;;;;5002909;28;20321;-79
2023/07/24 11:45:55;;;;;;;4.45;3.78;;;26.60;96.60;;;;;;5007746;28;20229;-79
2023/07/24 11:48:23;;;;;;;5.40;4.25;;;26.50;95.80;;;;;;5013015;28;20240;-79
2023/07/24 11:50:52;;;;;;;4.65;4.25;;;26.30;96.00;;;;;;4994412;28;20224;-79
2023/07/24 11:53:23;;;;;;;4.80;3.90;;;26.10;96.10;;;;;;5015541;28;20386;-80
2023/07/24 11:55:50;;;;;;;5.85;4.10;;;25.90;96.00;;;;;;5008671;28;20225;-79
2023/07/24 11:58:18;;;;;;;4.88;4.25;;;25.60;96.70;;;;;;5007590;28;20223;-80
2023/07/24 12:00:47;;;;;;;4.65;3.88;;;25.50;97.10;;;;;;5009709;28;20248;-80
2023/07/24 12:03:14;;;;;;;5.80;4.78;;;25.30;97.50;;;;;;5002424;28;20279;-81
2023/07/24 12:05:41;;;;;;;4.20;3.78;;;25.30;98.00;;;;;;5010234;28;20225;-81
2023/07/24 12:08:09;;;;;;;4.05;3.63;;;25.30;98.40;;;;;;5009549;28;20233;-80
2023/07/24 12:10:38;;;;;;;4.38;3.97;;;25.50;98.40;;;;;;5010302;28;20221;-80
2023/07/24 12:13:05;;;;;;;4.47;3.80;;;25.80;97.80;;;;;;5009667;28;20233;-80
2023/07/24 12:15:32;;;;;;;4.72;4.32;;;26.10;97.40;;;;;;5008996;28;20226;-80
2023/07/24 12:18:00;;;;;;;4.35;3.95;;;26.40;96.80;;;;;;5005240;28;20233;-80
2023/07/24 12:20:28;;;;;;;4.03;3.67;;;26.70;96.30;;;;;;5005657;28;20231;-80
2023/07/24 12:22:54;;;;;;;4.82;4.30;;;27.00;96.20;;;;;;5023869;28;20233;-83
2023/07/24 12:25:21;;;;;;;4.00;3.58;;;27.30;95.80;;;;;;4991299;28;20312;-81
2023/07/24 12:27:48;;;;;;;4.35;3.95;;;27.50;95.20;;;;;;5008515;28;20320;-82
2023/07/24 12:30:15;;;;;;;4.15;3.75;;;27.70;94.30;;;;;;5007867;28;20224;-82
2023/07/24 12:32:42;;;;;;;4.50;4.10;;;27.80;94.10;;;;;;5009768;28;20228;-81
2023/07/24 12:35:11;;;;;;;4.45;4.10;;;27.90;93.80;;;;;;5007965;28;20222;-80
2023/07/24 12:37:39;;;;;;;4.00;3.70;;;27.90;93.30;;;;;;5010103;28;20766;-82
2023/07/24 12:40:07;;;;;;;4.38;4.00;;;28.00;94.00;;;;;;4987063;28;20221;-84
2023/07/24 12:42:33;;;;;;;5.47;4.97;;;28.10;93.70;;;;;;5001762;28;20313;-81
2023/07/24 12:45:02;;;;;;;4.63;4.22;;;28.20;93.30;;;;;;5006036;28;20229;-82
2023/07/24 12:47:29;;;;;;;4.50;4.20;;;28.20;92.80;;;;;;5005712;28;20321;-83
2023/07/24 12:49:57;;;;;;;4.07;3.72;;;28.20;93.30;;;;;;5007777;28;20236;-83